British Robin — MGSH7 — position and weather

sailwx.info

Track history (hours):
 
Tides and Currents Weather Stations Pressure Air Temp Water Temp Dewpoint Dewpoint Depression Visibility Wind Speed Wind Dir Waves Ship Positions

British Robin

Last reported at 2017-Apr-29 14:00 UTC. Time now 2017-Apr-29 15:28 UTC.
Position N 47°48' W 006°36'.

Length 251.5 m; beam 43.9 m; draft 15 m.

Type: Tanker. MMSI: 232156000.

Wind from 160 at 25 knots

Barometer 1006.3 mb
Air temperature 12.5 ° C
Visibility: greater than 5.4 NM
Dewpoint 8.5 ° C
Water temperature 13.1 ° C

Date/timePositionNaut miles runAvg speedWind from/ knotsBaromVisibWave heightAir tempDewpointWater temp
2017-Apr-29 14:00N 47°48' W 006°36'15411.1 160 / 251006.3 5.4 12.5 8.513.1
2017-Apr-29 00:10N 49°38' W 003°53'313.3
2017-Apr-28 23:58N 49°39' W 003°50'613.0
2017-Apr-28 23:28N 49°42' W 003°41'612.3
2017-Apr-28 23:00N 49°45' W 003°33'611.7
2017-Apr-28 22:30N 49°48' W 003°25'511.0
2017-Apr-28 22:00N 49°51' W 003°18'510.3
2017-Apr-28 21:30N 49°53' W 003°11'5 9.7
2017-Apr-28 21:00N 49°56' W 003°05'5 9.3
2017-Apr-28 20:30N 49°58' W 002°58'5 9.3
2017-Apr-28 20:00N 49°59' W 002°51'5 9.5
2017-Apr-28 19:30N 50°01' W 002°44'6 9.8
2017-Apr-28 18:53N 50°02' W 002°35'1517.2
2017-Apr-28 18:00N 50°06' W 002°12'425.2 280 / 151017.110.8 11.1 6.7
2017-Apr-28 17:50N 50°05' W 002°18'1112.9
2017-Apr-28 17:00N 50°08' W 002°02'3015.0
2017-Apr-28 15:00N 50°17' W 001°17'1514.8
2017-Apr-28 14:00N 50°21' W 000°54'1712.6
2017-Apr-28 12:38N 50°25' W 000°28'111.6
2017-Apr-28 12:30N 50°26' W 000°26'511.2
2017-Apr-28 12:00N 50°27' W 000°18'510.7
2017-Apr-28 11:30N 50°29' W 000°10'510.0
2017-Apr-28 11:00N 50°30' W 000°02'5 9.5
2017-Apr-28 10:30N 50°31' E 000°05'4 9.1
2017-Apr-28 10:00N 50°32' E 000°12'4 9.0
2017-Apr-28 09:30N 50°34' E 000°19'5 9.3
2017-Apr-28 09:00N 50°35' E 000°26'510.2
2017-Apr-28 08:30N 50°36' E 000°34'611.4
2017-Apr-28 08:00N 50°40' E 000°41'612.5
2017-Apr-28 07:30N 50°43' E 000°49'713.2
2017-Apr-28 07:00N 50°47' E 000°57'713.4
2017-Apr-28 06:30N 50°51' E 001°06'713.3
2017-Apr-28 06:00N 50°56' E 001°14'713.1
2017-Apr-28 05:30N 51°01' E 001°21'612.2
2017-Apr-28 05:00N 51°05' E 001°28'611.2
2017-Apr-28 04:30N 51°08' E 001°35'510.4
2017-Apr-28 04:01N 51°11' E 001°42'5 9.9
2017-Apr-28 03:30N 51°15' E 001°47'5 9.5
2017-Apr-28 03:00N 51°19' E 001°51'5 9.3
2017-Apr-28 02:30N 51°23' E 001°54'5 9.4
2017-Apr-28 02:00N 51°27' E 001°58'5 9.8
2017-Apr-28 01:31N 51°31' E 002°03'510.1
2017-Apr-28 01:00N 51°35' E 002°09'510.5
2017-Apr-28 00:31N 51°38' E 002°14'2510.1
2017-Apr-27 22:00N 52°00' E 002°36'9011.3 270 / 201014.610.8 8.0 4.6
2017-Apr-27 14:00N 53°24' E 003°30'9210.2 270 / 291013.5 5.4 7.0 4.710.1
2017-Apr-27 05:00N 54°54' E 004°00'16811.2 300 / 251013.510.8 5.5 1.7
2017-Apr-26 14:00N 57°42' E 003°48'13811.5 340 / 191014.3 5.4 6.0 3.610.0
2017-Apr-26 02:00N 60°00' E 004°00'3511.1 010 / 201011.2 5.4 6.0 3.6
2017-Apr-25 22:50N 60°33' E 004°22'411.3
2017-Apr-25 22:30N 60°36' E 004°27'611.3
2017-Apr-25 22:00N 60°41' E 004°34'4 8.9
2017-Apr-25 21:30N 60°45' E 004°36'510.6
2017-Apr-25 21:00N 60°43' E 004°46'5 9.8
2017-Apr-25 20:30N 60°39' E 004°51'2 3.8
2017-Apr-25 20:00N 60°37' E 004°52'0 0.1
2017-Apr-25 19:28N 60°37' E 004°52'0 0.0
2017-Apr-25 18:58N 60°37' E 004°52'0 0.0
2017-Apr-25 18:28N 60°37' E 004°52'0 0.0
2017-Apr-25 17:58N 60°37' E 004°52'0 0.0
2017-Apr-25 17:28N 60°37' E 004°52'0 0.0
2017-Apr-25 16:58N 60°37' E 004°52'0 0.0
2017-Apr-25 16:28N 60°37' E 004°52'0 0.0
2017-Apr-25 15:58N 60°37' E 004°52'0 0.0
2017-Apr-25 15:28N 60°37' E 004°52'0 0.0
2017-Apr-25 14:58N 60°37' E 004°52'0 0.0
2017-Apr-25 14:28N 60°37' E 004°52'0 0.0
2017-Apr-25 13:28N 60°37' E 004°52'0 0.0
2017-Apr-25 12:58N 60°37' E 004°52'0 0.0
2017-Apr-25 12:28N 60°37' E 004°52'0 0.0
2017-Apr-25 11:58N 60°37' E 004°52'0 0.0
2017-Apr-25 11:28N 60°37' E 004°52'0 0.0
2017-Apr-25 10:58N 60°37' E 004°52'0 0.0
2017-Apr-25 10:28N 60°37' E 004°52'0 0.0
2017-Apr-25 09:58N 60°37' E 004°52'0 0.0
2017-Apr-25 09:28N 60°37' E 004°52'0 0.0
2017-Apr-25 08:58N 60°37' E 004°52'0 0.0
2017-Apr-25 08:28N 60°37' E 004°52'0 0.0
2017-Apr-25 07:58N 60°37' E 004°52'0 0.0
2017-Apr-25 07:28N 60°37' E 004°52'0 0.0
2017-Apr-25 06:58N 60°37' E 004°52'0 0.0
2017-Apr-25 06:28N 60°37' E 004°52'0 0.0
2017-Apr-25 05:58N 60°37' E 004°52'0 0.0
2017-Apr-25 05:28N 60°37' E 004°52'0 0.0
2017-Apr-25 04:58N 60°37' E 004°52'0 0.0
2017-Apr-25 04:28N 60°37' E 004°52'0 0.0
2017-Apr-25 03:58N 60°37' E 004°52'0 0.0
2017-Apr-25 03:28N 60°37' E 004°52'0 0.0
2017-Apr-25 03:01N 60°37' E 004°52'0 0.0
2017-Apr-25 02:31N 60°37' E 004°52'0 0.0
2017-Apr-25 02:00N 60°37' E 004°52'0 0.0
2017-Apr-25 01:30N 60°37' E 004°52'0 0.0
2017-Apr-25 01:00N 60°37' E 004°52'0 0.0
2017-Apr-25 00:30N 60°37' E 004°52'0 0.0
2017-Apr-25 00:00N 60°37' E 004°52'0 0.0
2017-Apr-24 23:30N 60°37' E 004°52'0 0.0
2017-Apr-24 23:00N 60°37' E 004°52'0 0.0
2017-Apr-24 22:30N 60°37' E 004°52'0 0.5
2017-Apr-24 22:00N 60°37' E 004°52'2 3.7
2017-Apr-24 21:30N 60°39' E 004°51'5 9.7
2017-Apr-24 21:00N 60°43' E 004°46'510.8
2017-Apr-24 20:30N 60°45' E 004°36'4 7.4
2017-Apr-24 20:00N 60°45' E 004°28'3 5.0
2017-Apr-24 19:29N 60°43' E 004°27'2 4.4
2017-Apr-24 19:00N 60°41' E 004°25'11510.5
2017-Apr-24 08:01N 58°46' E 004°34'2 8.3
2017-Apr-24 07:50N 58°45' E 004°36'6 8.6
2017-Apr-24 07:09N 58°41' E 004°44'1 9.5
2017-Apr-24 07:00N 58°40' E 004°46'5 9.5
2017-Apr-24 06:30N 58°36' E 004°53'510.0
2017-Apr-24 06:00N 58°33' E 004°60'510.7
2017-Apr-24 05:30N 58°29' E 005°07'611.7
2017-Apr-24 05:00N 58°25' E 005°15'611.5
2017-Apr-24 04:30N 58°21' E 005°23'611.4
2017-Apr-24 04:00N 58°17' E 005°31'5358.7
2017-Apr-24 04:00N 58°12' E 005°30'5 9.4 340 / 401001.110.8 6.0 0.9 7.0
2017-Apr-24 03:30N 58°14' E 005°38'611.5
2017-Apr-24 03:00N 58°10' E 005°46'612.0
2017-Apr-24 02:30N 58°06' E 005°55'612.5
2017-Apr-24 02:00N 58°01' E 006°04'21678.0
2017-Apr-24 02:00N 58°00' E 006°06'5 9.1 260 / 351002.6 5.4 6.0 0.9
2017-Apr-24 01:30N 57°57' E 006°12'612.0
2017-Apr-24 00:59N 57°53' E 006°21'612.0
2017-Apr-24 00:30N 57°50' E 006°30'612.3
2017-Apr-24 00:00N 57°47' E 006°41'612.6
2017-Apr-23 23:30N 57°47' E 006°52'612.1
2017-Apr-23 23:00N 57°47' E 007°04'612.2
2017-Apr-23 22:30N 57°46' E 007°15'612.8
2017-Apr-23 22:00N 57°46' E 007°27'713.0
2017-Apr-23 21:30N 57°46' E 007°39'713.0
2017-Apr-23 21:00N 57°45' E 007°52'713.2
2017-Apr-23 20:29N 57°46' E 008°04'5611.4
2017-Apr-23 15:34N 57°54' E 009°48'113.7
2017-Apr-23 15:28N 57°53' E 009°48'26 9.3
2017-Apr-23 12:39N 57°55' E 010°37'212.2
2017-Apr-23 12:30N 57°55' E 010°40'611.5
2017-Apr-23 11:59N 57°54' E 010°52'511.4
2017-Apr-23 11:30N 57°51' E 010°59'611.7
2017-Apr-23 10:59N 57°47' E 011°07'611.9
2017-Apr-23 10:30N 57°43' E 011°15'611.9
2017-Apr-23 10:00N 57°39' E 011°24'611.9
2017-Apr-23 09:30N 57°35' E 011°32'2 4.7
2017-Apr-23 09:00N 57°33' E 011°36'0 0.1
2017-Apr-23 08:30N 57°33' E 011°36'0 0.0
2017-Apr-23 08:00N 57°33' E 011°36'0 0.0
2017-Apr-23 07:30N 57°33' E 011°36'0 0.0
2017-Apr-23 07:00N 57°33' E 011°36'0 0.0
2017-Apr-23 06:30N 57°33' E 011°36'0 0.0
2017-Apr-23 05:57N 57°33' E 011°36'0 0.0
2017-Apr-23 05:27N 57°33' E 011°36'3 7.4
2017-Apr-23 05:00N 57°30' E 011°36'372.9 340 / 181010.810.8 6.5-0.0 8.5
2017-Apr-23 04:57N 57°33' E 011°36'0 0.0
2017-Apr-23 04:12N 57°33' E 011°36'0 0.0
2017-Apr-23 03:51N 57°33' E 011°36'0 0.0
2017-Apr-23 03:27N 57°33' E 011°36'0 0.0
2017-Apr-23 02:57N 57°33' E 011°36'0 0.0
2017-Apr-23 02:27N 57°33' E 011°36'0 0.1
2017-Apr-23 01:57N 57°33' E 011°36'0 0.0
2017-Apr-23 01:27N 57°33' E 011°36'0 0.1
2017-Apr-23 00:24N 57°33' E 011°36'0 0.0
2017-Apr-22 23:51N 57°33' E 011°36'0 0.0
2017-Apr-22 23:03N 57°33' E 011°36'0 0.1
2017-Apr-22 22:45N 57°33' E 011°36'0 0.0
2017-Apr-22 22:30N 57°34' E 011°36'0 0.0
2017-Apr-22 22:00N 57°34' E 011°36'0 0.0
2017-Apr-22 21:24N 57°34' E 011°36'0 0.0
2017-Apr-22 21:00N 57°34' E 011°36'0 0.1
2017-Apr-22 20:23N 57°33' E 011°36'0 0.0
2017-Apr-22 19:26N 57°33' E 011°36'0 0.0
2017-Apr-22 18:44N 57°33' E 011°36'0 0.0
2017-Apr-22 18:29N 57°33' E 011°36'0 0.0
2017-Apr-22 17:47N 57°33' E 011°36'0 0.0
2017-Apr-22 17:29N 57°33' E 011°36'0 0.0
2017-Apr-22 16:59N 57°33' E 011°36'0 0.0
2017-Apr-22 16:29N 57°33' E 011°36'0 0.0
2017-Apr-22 15:59N 57°33' E 011°36'0 0.0
2017-Apr-22 15:26N 57°33' E 011°36'0 0.0
2017-Apr-22 14:59N 57°33' E 011°36'0 0.0
2017-Apr-22 14:29N 57°33' E 011°36'0 0.2
2017-Apr-22 13:30N 57°33' E 011°35'1 2.4
2017-Apr-22 13:01N 57°34' E 011°37'4 7.7
2017-Apr-22 12:30N 57°38' E 011°41'4 8.2
2017-Apr-22 12:01N 57°41' E 011°46'1 1.8
2017-Apr-22 11:31N 57°41' E 011°47'0 0.0
2017-Apr-22 10:58N 57°41' E 011°47'0 0.0
2017-Apr-22 10:28N 57°41' E 011°47'0 0.0
2017-Apr-22 09:58N 57°41' E 011°47'0 0.0
2017-Apr-22 09:28N 57°41' E 011°47'0 0.0
2017-Apr-22 08:58N 57°41' E 011°47'0 0.0
2017-Apr-22 08:28N 57°41' E 011°47'0 0.0
2017-Apr-22 07:58N 57°41' E 011°47'0 0.0
2017-Apr-22 07:28N 57°41' E 011°47'0 0.0
2017-Apr-22 07:00N 57°41' E 011°47'0 0.0
2017-Apr-22 06:30N 57°41' E 011°47'0 0.0
2017-Apr-22 06:00N 57°41' E 011°47'0 0.0
2017-Apr-22 05:30N 57°41' E 011°47'0 0.0
2017-Apr-22 05:00N 57°41' E 011°47'0 0.0
2017-Apr-22 04:30N 57°41' E 011°47'0 0.0
2017-Apr-22 04:00N 57°41' E 011°47'0 0.0
2017-Apr-22 03:30N 57°41' E 011°47'0 0.0
2017-Apr-22 03:00N 57°41' E 011°47'0 0.0
2017-Apr-22 02:30N 57°41' E 011°47'0 0.0
2017-Apr-22 02:00N 57°41' E 011°47'0 0.0
2017-Apr-22 01:30N 57°41' E 011°47'0 0.0
2017-Apr-22 01:00N 57°41' E 011°47'0 0.0
2017-Apr-22 00:30N 57°41' E 011°47'0 0.0
2017-Apr-22 00:00N 57°41' E 011°47'0 0.0
2017-Apr-21 23:30N 57°41' E 011°47'0 0.0
2017-Apr-21 23:00N 57°41' E 011°47'0 0.0
2017-Apr-21 22:30N 57°41' E 011°47'0 0.0
2017-Apr-21 22:00N 57°41' E 011°47'0 0.0
2017-Apr-21 21:30N 57°41' E 011°47'0 0.0
2017-Apr-21 21:00N 57°41' E 011°47'0 0.0
2017-Apr-21 20:30N 57°41' E 011°47'0 0.0
2017-Apr-21 20:00N 57°41' E 011°47'0 0.0
2017-Apr-21 19:30N 57°41' E 011°47'0 0.0
2017-Apr-21 19:00N 57°41' E 011°47'0 0.0
2017-Apr-21 18:30N 57°41' E 011°47'0 0.0
2017-Apr-21 18:00N 57°41' E 011°47'0 0.0
2017-Apr-21 17:30N 57°41' E 011°47'0 0.0
2017-Apr-21 17:00N 57°41' E 011°47'0 0.0
2017-Apr-21 16:30N 57°41' E 011°47'0 0.0
2017-Apr-21 16:00N 57°41' E 011°47'0 0.0
2017-Apr-21 15:30N 57°41' E 011°47'0 0.0
2017-Apr-21 15:00N 57°41' E 011°47'0 0.0
2017-Apr-21 14:30N 57°41' E 011°47'0 0.0
2017-Apr-21 13:30N 57°41' E 011°47'0 0.0
2017-Apr-21 13:00N 57°41' E 011°47'0 0.0
2017-Apr-21 12:30N 57°41' E 011°47'0 0.0
2017-Apr-21 12:00N 57°41' E 011°47'0 0.0
2017-Apr-21 11:30N 57°41' E 011°47'0 0.0
2017-Apr-21 11:00N 57°41' E 011°47'0 0.0
2017-Apr-21 10:30N 57°41' E 011°47'0 0.0
2017-Apr-21 10:00N 57°41' E 011°47'0 0.0
2017-Apr-21 09:30N 57°41' E 011°47'0 0.0
2017-Apr-21 09:00N 57°41' E 011°47'0 0.0
2017-Apr-21 08:30N 57°41' E 011°47'0 0.0
2017-Apr-21 08:00N 57°41' E 011°47'0 0.0
2017-Apr-21 07:30N 57°41' E 011°47'0 0.0
2017-Apr-21 07:00N 57°41' E 011°47'0 0.0
2017-Apr-21 06:30N 57°41' E 011°47'0 0.0
2017-Apr-21 06:00N 57°41' E 011°47'0 0.0
2017-Apr-21 05:30N 57°41' E 011°47'0 0.0
2017-Apr-21 05:00N 57°41' E 011°47'0 0.0
2017-Apr-21 04:30N 57°41' E 011°47'0 0.0
2017-Apr-21 04:00N 57°41' E 011°47'0 0.0
2017-Apr-21 03:30N 57°41' E 011°47'1 1.5
2017-Apr-21 03:00N 57°41' E 011°46'3 6.0
2017-Apr-21 02:30N 57°39' E 011°41'4 8.4
2017-Apr-21 02:00N 57°35' E 011°38'2 3.9
2017-Apr-21 01:30N 57°34' E 011°36'0 0.2
2017-Apr-21 00:59N 57°34' E 011°36'0 0.0
2017-Apr-21 00:29N 57°34' E 011°36'0 0.0
2017-Apr-20 23:59N 57°34' E 011°36'0 0.0
2017-Apr-20 23:29N 57°34' E 011°36'0 0.1
2017-Apr-20 22:56N 57°34' E 011°36'0 0.1
2017-Apr-20 22:29N 57°34' E 011°36'0 0.0
2017-Apr-20 21:56N 57°34' E 011°36'0 0.1
2017-Apr-20 21:29N 57°34' E 011°36'0 0.1
2017-Apr-20 20:59N 57°34' E 011°36'0 0.1
2017-Apr-20 20:29N 57°34' E 011°36'0 0.1
2017-Apr-20 19:59N 57°34' E 011°36'0 0.0
2017-Apr-20 19:29N 57°34' E 011°36'0 0.0
2017-Apr-20 18:59N 57°34' E 011°36'0 0.0
2017-Apr-20 18:20N 57°34' E 011°36'0 0.1
2017-Apr-20 17:59N 57°34' E 011°36'0 0.0
2017-Apr-20 17:29N 57°34' E 011°36'0 0.0
2017-Apr-20 16:56N 57°34' E 011°36'0 0.0
2017-Apr-20 16:29N 57°34' E 011°36'0 0.0
2017-Apr-20 15:59N 57°34' E 011°36'0 0.0
2017-Apr-20 15:29N 57°34' E 011°36'0 0.0
2017-Apr-20 14:59N 57°34' E 011°36'0 0.0
2017-Apr-20 13:59N 57°34' E 011°36'0 0.0
2017-Apr-20 13:28N 57°34' E 011°36'0 0.0
2017-Apr-20 12:58N 57°34' E 011°36'0 0.0
2017-Apr-20 12:28N 57°34' E 011°36'0 0.0
2017-Apr-20 11:58N 57°34' E 011°36'0 0.0
2017-Apr-20 11:28N 57°34' E 011°36'0 0.0
2017-Apr-20 10:58N 57°34' E 011°36'0 0.1
2017-Apr-20 10:28N 57°34' E 011°36'0 0.0
2017-Apr-20 09:58N 57°34' E 011°36'0 0.0
2017-Apr-20 09:28N 57°34' E 011°36'0 0.1
2017-Apr-20 08:58N 57°34' E 011°36'0 0.0
2017-Apr-20 08:28N 57°34' E 011°36'0 0.0
2017-Apr-20 07:49N 57°34' E 011°36'0 0.0
2017-Apr-20 07:25N 57°34' E 011°36'0 0.0
2017-Apr-20 06:58N 57°34' E 011°36'0 0.0
2017-Apr-20 06:28N 57°34' E 011°36'0 0.0
2017-Apr-20 05:58N 57°34' E 011°36'0 0.0
2017-Apr-20 05:25N 57°34' E 011°36'0 0.1
2017-Apr-20 04:55N 57°34' E 011°36'0 0.1
2017-Apr-20 04:28N 57°34' E 011°36'0 0.0
2017-Apr-20 03:58N 57°34' E 011°36'0 0.0
2017-Apr-20 03:28N 57°34' E 011°36'0 0.0
2017-Apr-20 02:58N 57°34' E 011°36'0 0.1
2017-Apr-20 02:28N 57°34' E 011°36'0 0.0
2017-Apr-20 01:58N 57°34' E 011°36'0 0.0
2017-Apr-20 01:28N 57°34' E 011°36'0 0.0
2017-Apr-20 00:58N 57°34' E 011°36'0 0.0
2017-Apr-20 00:28N 57°34' E 011°36'0 0.1
2017-Apr-19 23:58N 57°34' E 011°36'0 0.1
2017-Apr-19 23:28N 57°34' E 011°36'0 0.1
2017-Apr-19 22:58N 57°34' E 011°36'0 0.0
2017-Apr-19 22:28N 57°34' E 011°36'0 0.1
2017-Apr-19 21:58N 57°34' E 011°35'0 0.0
2017-Apr-19 21:28N 57°34' E 011°35'0 0.0
2017-Apr-19 20:58N 57°34' E 011°35'0 0.0
2017-Apr-19 20:28N 57°34' E 011°35'0 0.0
2017-Apr-19 19:58N 57°34' E 011°35'0 0.0
2017-Apr-19 19:28N 57°34' E 011°35'0 0.0
2017-Apr-19 18:58N 57°34' E 011°35'0 0.0
2017-Apr-19 18:28N 57°34' E 011°35'0 0.0
2017-Apr-19 17:58N 57°34' E 011°35'0 0.0
2017-Apr-19 17:28N 57°34' E 011°35'0 0.0
2017-Apr-19 16:52N 57°34' E 011°35'0 0.0
2017-Apr-19 16:28N 57°34' E 011°35'4 8.3
2017-Apr-19 16:00N 57°30' E 011°36'4143.3 230 / 201033.910.8 6.5-0.0 8.0
2017-Apr-19 15:58N 57°34' E 011°35'0 0.0
2017-Apr-19 15:28N 57°34' E 011°35'0 0.0
2017-Apr-19 14:58N 57°34' E 011°35'0 0.0
2017-Apr-19 14:28N 57°34' E 011°35'510.3
2017-Apr-19 14:00N 57°30' E 011°30'   210 / 121034.6 5.4 6.0-4.1 8.4
Track history (hours):
 
Tides and Currents Weather Stations Pressure Air Temp Water Temp Dewpoint Dewpoint Depression Visibility Wind Speed Wind Dir Waves Ship Positions

British Robin

Last reported at 2017-Apr-29 14:00 UTC. Time now 2017-Apr-29 15:28 UTC.
Position N 47°48' W 006°36'.

Length 251.5 m; beam 43.9 m; draft 15 m.

Type: Tanker. MMSI: 232156000.

Wind from 160 at 25 knots

Barometer 1006.3 mb
Air temperature 12.5 ° C
Visibility: greater than 5.4 NM
Dewpoint 8.5 ° C
Water temperature 13.1 ° C

Date/timePositionNaut miles runAvg speedWind from/ knotsBaromVisibWave heightAir tempDewpointWater temp
2017-Apr-29 14:00N 47°48' W 006°36'15411.1 160 / 251006.3 5.4 12.5 8.513.1
2017-Apr-29 00:10N 49°38' W 003°53'313.3
2017-Apr-28 23:58N 49°39' W 003°50'613.0
2017-Apr-28 23:28N 49°42' W 003°41'612.3
2017-Apr-28 23:00N 49°45' W 003°33'611.7
2017-Apr-28 22:30N 49°48' W 003°25'511.0
2017-Apr-28 22:00N 49°51' W 003°18'510.3
2017-Apr-28 21:30N 49°53' W 003°11'5 9.7
2017-Apr-28 21:00N 49°56' W 003°05'5 9.3
2017-Apr-28 20:30N 49°58' W 002°58'5 9.3
2017-Apr-28 20:00N 49°59' W 002°51'5 9.5
2017-Apr-28 19:30N 50°01' W 002°44'6 9.8
2017-Apr-28 18:53N 50°02' W 002°35'1517.2
2017-Apr-28 18:00N 50°06' W 002°12'425.2 280 / 151017.110.8 11.1 6.7
2017-Apr-28 17:50N 50°05' W 002°18'1112.9
2017-Apr-28 17:00N 50°08' W 002°02'3015.0
2017-Apr-28 15:00N 50°17' W 001°17'1514.8
2017-Apr-28 14:00N 50°21' W 000°54'1712.6
2017-Apr-28 12:38N 50°25' W 000°28'111.6
2017-Apr-28 12:30N 50°26' W 000°26'511.2
2017-Apr-28 12:00N 50°27' W 000°18'510.7
2017-Apr-28 11:30N 50°29' W 000°10'510.0
2017-Apr-28 11:00N 50°30' W 000°02'5 9.5
2017-Apr-28 10:30N 50°31' E 000°05'4 9.1
2017-Apr-28 10:00N 50°32' E 000°12'4 9.0
2017-Apr-28 09:30N 50°34' E 000°19'5 9.3
2017-Apr-28 09:00N 50°35' E 000°26'510.2
2017-Apr-28 08:30N 50°36' E 000°34'611.4
2017-Apr-28 08:00N 50°40' E 000°41'612.5
2017-Apr-28 07:30N 50°43' E 000°49'713.2
2017-Apr-28 07:00N 50°47' E 000°57'713.4
2017-Apr-28 06:30N 50°51' E 001°06'713.3
2017-Apr-28 06:00N 50°56' E 001°14'713.1
2017-Apr-28 05:30N 51°01' E 001°21'612.2
2017-Apr-28 05:00N 51°05' E 001°28'611.2
2017-Apr-28 04:30N 51°08' E 001°35'510.4
2017-Apr-28 04:01N 51°11' E 001°42'5 9.9
2017-Apr-28 03:30N 51°15' E 001°47'5 9.5
2017-Apr-28 03:00N 51°19' E 001°51'5 9.3
2017-Apr-28 02:30N 51°23' E 001°54'5 9.4
2017-Apr-28 02:00N 51°27' E 001°58'5 9.8
2017-Apr-28 01:31N 51°31' E 002°03'510.1
2017-Apr-28 01:00N 51°35' E 002°09'510.5
2017-Apr-28 00:31N 51°38' E 002°14'2510.1
2017-Apr-27 22:00N 52°00' E 002°36'9011.3 270 / 201014.610.8 8.0 4.6
2017-Apr-27 14:00N 53°24' E 003°30'9210.2 270 / 291013.5 5.4 7.0 4.710.1
2017-Apr-27 05:00N 54°54' E 004°00'16811.2 300 / 251013.510.8 5.5 1.7
2017-Apr-26 14:00N 57°42' E 003°48'13811.5 340 / 191014.3 5.4 6.0 3.610.0
2017-Apr-26 02:00N 60°00' E 004°00'3511.1 010 / 201011.2 5.4 6.0 3.6
2017-Apr-25 22:50N 60°33' E 004°22'411.3
2017-Apr-25 22:30N 60°36' E 004°27'611.3
2017-Apr-25 22:00N 60°41' E 004°34'4 8.9
2017-Apr-25 21:30N 60°45' E 004°36'510.6
2017-Apr-25 21:00N 60°43' E 004°46'5 9.8
2017-Apr-25 20:30N 60°39' E 004°51'2 3.8
2017-Apr-25 20:00N 60°37' E 004°52'0 0.1
2017-Apr-25 19:28N 60°37' E 004°52'0 0.0
2017-Apr-25 18:58N 60°37' E 004°52'0 0.0
2017-Apr-25 18:28N 60°37' E 004°52'0 0.0
2017-Apr-25 17:58N 60°37' E 004°52'0 0.0
2017-Apr-25 17:28N 60°37' E 004°52'0 0.0
2017-Apr-25 16:58N 60°37' E 004°52'0 0.0
2017-Apr-25 16:28N 60°37' E 004°52'0 0.0
2017-Apr-25 15:58N 60°37' E 004°52'0 0.0
2017-Apr-25 15:28N 60°37' E 004°52'0 0.0
2017-Apr-25 14:58N 60°37' E 004°52'0 0.0
2017-Apr-25 14:28N 60°37' E 004°52'0 0.0
2017-Apr-25 13:28N 60°37' E 004°52'0 0.0
2017-Apr-25 12:58N 60°37' E 004°52'0 0.0
2017-Apr-25 12:28N 60°37' E 004°52'0 0.0
2017-Apr-25 11:58N 60°37' E 004°52'0 0.0
2017-Apr-25 11:28N 60°37' E 004°52'0 0.0
2017-Apr-25 10:58N 60°37' E 004°52'0 0.0
2017-Apr-25 10:28N 60°37' E 004°52'0 0.0
2017-Apr-25 09:58N 60°37' E 004°52'0 0.0
2017-Apr-25 09:28N 60°37' E 004°52'0 0.0
2017-Apr-25 08:58N 60°37' E 004°52'0 0.0
2017-Apr-25 08:28N 60°37' E 004°52'0 0.0
2017-Apr-25 07:58N 60°37' E 004°52'0 0.0
2017-Apr-25 07:28N 60°37' E 004°52'0 0.0
2017-Apr-25 06:58N 60°37' E 004°52'0 0.0
2017-Apr-25 06:28N 60°37' E 004°52'0 0.0
2017-Apr-25 05:58N 60°37' E 004°52'0 0.0
2017-Apr-25 05:28N 60°37' E 004°52'0 0.0
2017-Apr-25 04:58N 60°37' E 004°52'0 0.0
2017-Apr-25 04:28N 60°37' E 004°52'0 0.0
2017-Apr-25 03:58N 60°37' E 004°52'0 0.0
2017-Apr-25 03:28N 60°37' E 004°52'0 0.0
2017-Apr-25 03:01N 60°37' E 004°52'0 0.0
2017-Apr-25 02:31N 60°37' E 004°52'0 0.0
2017-Apr-25 02:00N 60°37' E 004°52'0 0.0
2017-Apr-25 01:30N 60°37' E 004°52'0 0.0
2017-Apr-25 01:00N 60°37' E 004°52'0 0.0
2017-Apr-25 00:30N 60°37' E 004°52'0 0.0
2017-Apr-25 00:00N 60°37' E 004°52'0 0.0
2017-Apr-24 23:30N 60°37' E 004°52'0 0.0
2017-Apr-24 23:00N 60°37' E 004°52'0 0.0
2017-Apr-24 22:30N 60°37' E 004°52'0 0.5
2017-Apr-24 22:00N 60°37' E 004°52'2 3.7
2017-Apr-24 21:30N 60°39' E 004°51'5 9.7
2017-Apr-24 21:00N 60°43' E 004°46'510.8
2017-Apr-24 20:30N 60°45' E 004°36'4 7.4
2017-Apr-24 20:00N 60°45' E 004°28'3 5.0
2017-Apr-24 19:29N 60°43' E 004°27'2 4.4
2017-Apr-24 19:00N 60°41' E 004°25'11510.5
2017-Apr-24 08:01N 58°46' E 004°34'2 8.3
2017-Apr-24 07:50N 58°45' E 004°36'6 8.6
2017-Apr-24 07:09N 58°41' E 004°44'1 9.5
2017-Apr-24 07:00N 58°40' E 004°46'5 9.5
2017-Apr-24 06:30N 58°36' E 004°53'510.0
2017-Apr-24 06:00N 58°33' E 004°60'510.7
2017-Apr-24 05:30N 58°29' E 005°07'611.7
2017-Apr-24 05:00N 58°25' E 005°15'611.5
2017-Apr-24 04:30N 58°21' E 005°23'611.4
2017-Apr-24 04:00N 58°17' E 005°31'5358.7
2017-Apr-24 04:00N 58°12' E 005°30'5 9.4 340 / 401001.110.8 6.0 0.9 7.0
2017-Apr-24 03:30N 58°14' E 005°38'611.5
2017-Apr-24 03:00N 58°10' E 005°46'612.0
2017-Apr-24 02:30N 58°06' E 005°55'612.5
2017-Apr-24 02:00N 58°01' E 006°04'21678.0
2017-Apr-24 02:00N 58°00' E 006°06'5 9.1 260 / 351002.6 5.4 6.0 0.9
2017-Apr-24 01:30N 57°57' E 006°12'612.0
2017-Apr-24 00:59N 57°53' E 006°21'612.0
2017-Apr-24 00:30N 57°50' E 006°30'612.3
2017-Apr-24 00:00N 57°47' E 006°41'612.6
2017-Apr-23 23:30N 57°47' E 006°52'612.1
2017-Apr-23 23:00N 57°47' E 007°04'612.2
2017-Apr-23 22:30N 57°46' E 007°15'612.8
2017-Apr-23 22:00N 57°46' E 007°27'713.0
2017-Apr-23 21:30N 57°46' E 007°39'713.0
2017-Apr-23 21:00N 57°45' E 007°52'713.2
2017-Apr-23 20:29N 57°46' E 008°04'5611.4
2017-Apr-23 15:34N 57°54' E 009°48'113.7
2017-Apr-23 15:28N 57°53' E 009°48'26 9.3
2017-Apr-23 12:39N 57°55' E 010°37'212.2
2017-Apr-23 12:30N 57°55' E 010°40'611.5
2017-Apr-23 11:59N 57°54' E 010°52'511.4
2017-Apr-23 11:30N 57°51' E 010°59'611.7
2017-Apr-23 10:59N 57°47' E 011°07'611.9
2017-Apr-23 10:30N 57°43' E 011°15'611.9
2017-Apr-23 10:00N 57°39' E 011°24'611.9
2017-Apr-23 09:30N 57°35' E 011°32'2 4.7
2017-Apr-23 09:00N 57°33' E 011°36'0 0.1
2017-Apr-23 08:30N 57°33' E 011°36'0 0.0
2017-Apr-23 08:00N 57°33' E 011°36'0 0.0
2017-Apr-23 07:30N 57°33' E 011°36'0 0.0
2017-Apr-23 07:00N 57°33' E 011°36'0 0.0
2017-Apr-23 06:30N 57°33' E 011°36'0 0.0
2017-Apr-23 05:57N 57°33' E 011°36'0 0.0
2017-Apr-23 05:27N 57°33' E 011°36'3 7.4
2017-Apr-23 05:00N 57°30' E 011°36'372.9 340 / 181010.810.8 6.5-0.0 8.5
2017-Apr-23 04:57N 57°33' E 011°36'0 0.0
2017-Apr-23 04:12N 57°33' E 011°36'0 0.0
2017-Apr-23 03:51N 57°33' E 011°36'0 0.0
2017-Apr-23 03:27N 57°33' E 011°36'0 0.0
2017-Apr-23 02:57N 57°33' E 011°36'0 0.0
2017-Apr-23 02:27N 57°33' E 011°36'0 0.1
2017-Apr-23 01:57N 57°33' E 011°36'0 0.0
2017-Apr-23 01:27N 57°33' E 011°36'0 0.1
2017-Apr-23 00:24N 57°33' E 011°36'0 0.0
2017-Apr-22 23:51N 57°33' E 011°36'0 0.0
2017-Apr-22 23:03N 57°33' E 011°36'0 0.1
2017-Apr-22 22:45N 57°33' E 011°36'0 0.0
2017-Apr-22 22:30N 57°34' E 011°36'0 0.0
2017-Apr-22 22:00N 57°34' E 011°36'0 0.0
2017-Apr-22 21:24N 57°34' E 011°36'0 0.0
2017-Apr-22 21:00N 57°34' E 011°36'0 0.1
2017-Apr-22 20:23N 57°33' E 011°36'0 0.0
2017-Apr-22 19:26N 57°33' E 011°36'0 0.0
2017-Apr-22 18:44N 57°33' E 011°36'0 0.0
2017-Apr-22 18:29N 57°33' E 011°36'0 0.0
2017-Apr-22 17:47N 57°33' E 011°36'0 0.0
2017-Apr-22 17:29N 57°33' E 011°36'0 0.0
2017-Apr-22 16:59N 57°33' E 011°36'0 0.0
2017-Apr-22 16:29N 57°33' E 011°36'0 0.0
2017-Apr-22 15:59N 57°33' E 011°36'0 0.0
2017-Apr-22 15:26N 57°33' E 011°36'0 0.0
2017-Apr-22 14:59N 57°33' E 011°36'0 0.0
2017-Apr-22 14:29N 57°33' E 011°36'0 0.2
2017-Apr-22 13:30N 57°33' E 011°35'1 2.4
2017-Apr-22 13:01N 57°34' E 011°37'4 7.7
2017-Apr-22 12:30N 57°38' E 011°41'4 8.2
2017-Apr-22 12:01N 57°41' E 011°46'1 1.8
2017-Apr-22 11:31N 57°41' E 011°47'0 0.0
2017-Apr-22 10:58N 57°41' E 011°47'0 0.0
2017-Apr-22 10:28N 57°41' E 011°47'0 0.0
2017-Apr-22 09:58N 57°41' E 011°47'0 0.0
2017-Apr-22 09:28N 57°41' E 011°47'0 0.0
2017-Apr-22 08:58N 57°41' E 011°47'0 0.0
2017-Apr-22 08:28N 57°41' E 011°47'0 0.0
2017-Apr-22 07:58N 57°41' E 011°47'0 0.0
2017-Apr-22 07:28N 57°41' E 011°47'0 0.0
2017-Apr-22 07:00N 57°41' E 011°47'0 0.0
2017-Apr-22 06:30N 57°41' E 011°47'0 0.0
2017-Apr-22 06:00N 57°41' E 011°47'0 0.0
2017-Apr-22 05:30N 57°41' E 011°47'0 0.0
2017-Apr-22 05:00N 57°41' E 011°47'0 0.0
2017-Apr-22 04:30N 57°41' E 011°47'0 0.0
2017-Apr-22 04:00N 57°41' E 011°47'0 0.0
2017-Apr-22 03:30N 57°41' E 011°47'0 0.0
2017-Apr-22 03:00N 57°41' E 011°47'0 0.0
2017-Apr-22 02:30N 57°41' E 011°47'0 0.0
2017-Apr-22 02:00N 57°41' E 011°47'0 0.0
2017-Apr-22 01:30N 57°41' E 011°47'0 0.0
2017-Apr-22 01:00N 57°41' E 011°47'0 0.0
2017-Apr-22 00:30N 57°41' E 011°47'0 0.0
2017-Apr-22 00:00N 57°41' E 011°47'0 0.0
2017-Apr-21 23:30N 57°41' E 011°47'0 0.0
2017-Apr-21 23:00N 57°41' E 011°47'0 0.0
2017-Apr-21 22:30N 57°41' E 011°47'0 0.0
2017-Apr-21 22:00N 57°41' E 011°47'0 0.0
2017-Apr-21 21:30N 57°41' E 011°47'0 0.0
2017-Apr-21 21:00N 57°41' E 011°47'0 0.0
2017-Apr-21 20:30N 57°41' E 011°47'0 0.0
2017-Apr-21 20:00N 57°41' E 011°47'0 0.0
2017-Apr-21 19:30N 57°41' E 011°47'0 0.0
2017-Apr-21 19:00N 57°41' E 011°47'0 0.0
2017-Apr-21 18:30N 57°41' E 011°47'0 0.0
2017-Apr-21 18:00N 57°41' E 011°47'0 0.0
2017-Apr-21 17:30N 57°41' E 011°47'0 0.0
2017-Apr-21 17:00N 57°41' E 011°47'0 0.0
2017-Apr-21 16:30N 57°41' E 011°47'0 0.0
2017-Apr-21 16:00N 57°41' E 011°47'0 0.0
2017-Apr-21 15:30N 57°41' E 011°47'0 0.0
2017-Apr-21 15:00N 57°41' E 011°47'0 0.0
2017-Apr-21 14:30N 57°41' E 011°47'0 0.0
2017-Apr-21 13:30N 57°41' E 011°47'0 0.0
2017-Apr-21 13:00N 57°41' E 011°47'0 0.0
2017-Apr-21 12:30N 57°41' E 011°47'0 0.0
2017-Apr-21 12:00N 57°41' E 011°47'0 0.0
2017-Apr-21 11:30N 57°41' E 011°47'0 0.0
2017-Apr-21 11:00N 57°41' E 011°47'0 0.0
2017-Apr-21 10:30N 57°41' E 011°47'0 0.0
2017-Apr-21 10:00N 57°41' E 011°47'0 0.0
2017-Apr-21 09:30N 57°41' E 011°47'0 0.0
2017-Apr-21 09:00N 57°41' E 011°47'0 0.0
2017-Apr-21 08:30N 57°41' E 011°47'0 0.0
2017-Apr-21 08:00N 57°41' E 011°47'0 0.0
2017-Apr-21 07:30N 57°41' E 011°47'0 0.0
2017-Apr-21 07:00N 57°41' E 011°47'0 0.0
2017-Apr-21 06:30N 57°41' E 011°47'0 0.0
2017-Apr-21 06:00N 57°41' E 011°47'0 0.0
2017-Apr-21 05:30N 57°41' E 011°47'0 0.0
2017-Apr-21 05:00N 57°41' E 011°47'0 0.0
2017-Apr-21 04:30N 57°41' E 011°47'0 0.0
2017-Apr-21 04:00N 57°41' E 011°47'0 0.0
2017-Apr-21 03:30N 57°41' E 011°47'1 1.5
2017-Apr-21 03:00N 57°41' E 011°46'3 6.0
2017-Apr-21 02:30N 57°39' E 011°41'4 8.4
2017-Apr-21 02:00N 57°35' E 011°38'2 3.9
2017-Apr-21 01:30N 57°34' E 011°36'0 0.2
2017-Apr-21 00:59N 57°34' E 011°36'0 0.0
2017-Apr-21 00:29N 57°34' E 011°36'0 0.0
2017-Apr-20 23:59N 57°34' E 011°36'0 0.0
2017-Apr-20 23:29N 57°34' E 011°36'0 0.1
2017-Apr-20 22:56N 57°34' E 011°36'0 0.1
2017-Apr-20 22:29N 57°34' E 011°36'0 0.0
2017-Apr-20 21:56N 57°34' E 011°36'0 0.1
2017-Apr-20 21:29N 57°34' E 011°36'0 0.1
2017-Apr-20 20:59N 57°34' E 011°36'0 0.1
2017-Apr-20 20:29N 57°34' E 011°36'0 0.1
2017-Apr-20 19:59N 57°34' E 011°36'0 0.0
2017-Apr-20 19:29N 57°34' E 011°36'0 0.0
2017-Apr-20 18:59N 57°34' E 011°36'0 0.0
2017-Apr-20 18:20N 57°34' E 011°36'0 0.1
2017-Apr-20 17:59N 57°34' E 011°36'0 0.0
2017-Apr-20 17:29N 57°34' E 011°36'0 0.0
2017-Apr-20 16:56N 57°34' E 011°36'0 0.0
2017-Apr-20 16:29N 57°34' E 011°36'0 0.0
2017-Apr-20 15:59N 57°34' E 011°36'0 0.0
2017-Apr-20 15:29N 57°34' E 011°36'0 0.0
2017-Apr-20 14:59N 57°34' E 011°36'0 0.0
2017-Apr-20 13:59N 57°34' E 011°36'0 0.0
2017-Apr-20 13:28N 57°34' E 011°36'0 0.0
2017-Apr-20 12:58N 57°34' E 011°36'0 0.0
2017-Apr-20 12:28N 57°34' E 011°36'0 0.0
2017-Apr-20 11:58N 57°34' E 011°36'0 0.0
2017-Apr-20 11:28N 57°34' E 011°36'0 0.0
2017-Apr-20 10:58N 57°34' E 011°36'0 0.1
2017-Apr-20 10:28N 57°34' E 011°36'0 0.0
2017-Apr-20 09:58N 57°34' E 011°36'0 0.0
2017-Apr-20 09:28N 57°34' E 011°36'0 0.1
2017-Apr-20 08:58N 57°34' E 011°36'0 0.0
2017-Apr-20 08:28N 57°34' E 011°36'0 0.0
2017-Apr-20 07:49N 57°34' E 011°36'0 0.0
2017-Apr-20 07:25N 57°34' E 011°36'0 0.0
2017-Apr-20 06:58N 57°34' E 011°36'0 0.0
2017-Apr-20 06:28N 57°34' E 011°36'0 0.0
2017-Apr-20 05:58N 57°34' E 011°36'0 0.0
2017-Apr-20 05:25N 57°34' E 011°36'0 0.1
2017-Apr-20 04:55N 57°34' E 011°36'0 0.1
2017-Apr-20 04:28N 57°34' E 011°36'0 0.0
2017-Apr-20 03:58N 57°34' E 011°36'0 0.0
2017-Apr-20 03:28N 57°34' E 011°36'0 0.0
2017-Apr-20 02:58N 57°34' E 011°36'0 0.1
2017-Apr-20 02:28N 57°34' E 011°36'0 0.0
2017-Apr-20 01:58N 57°34' E 011°36'0 0.0
2017-Apr-20 01:28N 57°34' E 011°36'0 0.0
2017-Apr-20 00:58N 57°34' E 011°36'0 0.0
2017-Apr-20 00:28N 57°34' E 011°36'0 0.1
2017-Apr-19 23:58N 57°34' E 011°36'0 0.1
2017-Apr-19 23:28N 57°34' E 011°36'0 0.1
2017-Apr-19 22:58N 57°34' E 011°36'0 0.0
2017-Apr-19 22:28N 57°34' E 011°36'0 0.1
2017-Apr-19 21:58N 57°34' E 011°35'0 0.0
2017-Apr-19 21:28N 57°34' E 011°35'0 0.0
2017-Apr-19 20:58N 57°34' E 011°35'0 0.0
2017-Apr-19 20:28N 57°34' E 011°35'0 0.0
2017-Apr-19 19:58N 57°34' E 011°35'0 0.0
2017-Apr-19 19:28N 57°34' E 011°35'0 0.0
2017-Apr-19 18:58N 57°34' E 011°35'0 0.0
2017-Apr-19 18:28N 57°34' E 011°35'0 0.0
2017-Apr-19 17:58N 57°34' E 011°35'0 0.0
2017-Apr-19 17:28N 57°34' E 011°35'0 0.0
2017-Apr-19 16:52N 57°34' E 011°35'0 0.0
2017-Apr-19 16:28N 57°34' E 011°35'4 8.3
2017-Apr-19 16:00N 57°30' E 011°36'4143.3 230 / 201033.910.8 6.5-0.0 8.0
2017-Apr-19 15:58N 57°34' E 011°35'0 0.0
2017-Apr-19 15:28N 57°34' E 011°35'0 0.0
2017-Apr-19 14:58N 57°34' E 011°35'0 0.0
2017-Apr-19 14:28N 57°34' E 011°35'510.3
2017-Apr-19 14:00N 57°30' E 011°30'   210 / 121034.6 5.4 6.0-4.1 8.4

Dump ship's entire track history